Belfast Municipal (BST)
Belfast, ME
Field Elevation: 198
Lat: 44°24.56N  Long: 69°00.71W
CTAF/Unicom Freq: 122.9750
   
     For Weather-by-Phone, call 207-930-7071
Weather Advisories
2017-11-23   18:07 Z
Altimeter 29.91" Hg
Wind 340° @ 12 KT
Gusts 17 KT
Visibility 10 SM
Ceiling CLR
Temperature 2° C (36° F)
Dewpoint -9° C (16° F)
Relative Humidity 47%
Density Altitude --
Condensation Altitude 5,500 feet
Wind Chill: -3° C (27° F)
Wind and Runways
Indicated Runway = 33
Headwind = 12 kt
Crosswind = 2 kt
History
 
 
 
More Info
NOAA Forecast
 
 
About Us
Belfort Instrument
 
 
FAA Disclaimer: The data displayed is for advisory purposes only and is not to be used for flight planning or operations. For official data, please call 207-930-7071 to hear the current automated AWOS voice message.
  METAR BST 231807Z AUTO 34012G17KT 10 SM CLR 02/M09 A2991